createdAt,value
2022-10-03T00:02:00.356Z,97487.13
2022-10-03T00:06:49.007Z,97528.97
2022-10-03T00:11:10.985Z,97532.81
2022-10-03T00:15:35.539Z,97532.72
2022-10-03T00:19:47.727Z,97535.44
2022-10-03T00:24:19.773Z,97536.50
2022-10-03T00:28:39.777Z,97546.09
2022-10-03T00:32:58.103Z,97543.28
2022-10-03T00:37:21.767Z,97529.25
2022-10-03T00:42:35.696Z,97554.63
2022-10-03T00:46:59.546Z,97536.44
2022-10-03T00:51:22.174Z,97557.44
2022-10-03T00:55:54.005Z,97570.78
2022-10-03T01:00:34.787Z,97565.16
2022-10-03T01:05:07.696Z,97571.81
2022-10-03T01:09:27.408Z,97574.66
2022-10-03T01:14:01.419Z,97574.09
2022-10-03T01:18:16.149Z,97576.66
2022-10-03T01:22:24.805Z,97576.81
2022-10-03T01:26:46.231Z,97567.34
2022-10-03T01:30:57.564Z,97580.47
2022-10-03T01:36:07.278Z,97582.69
2022-10-03T01:40:26.339Z,97590.63
2022-10-03T01:44:55.516Z,97596.69
2022-10-03T01:49:30.161Z,97598.28
2022-10-03T01:53:47.779Z,97596.47
2022-10-03T01:58:18.443Z,97585.94
2022-10-03T02:02:34.219Z,97612.00
2022-10-03T02:07:07.968Z,97608.72
2022-10-03T02:11:09.103Z,97588.84
2022-10-03T02:15:06.001Z,97609.19
2022-10-03T02:19:22.786Z,97570.88
2022-10-03T02:23:41.943Z,97571.25
2022-10-03T02:28:23.567Z,97593.59
2022-10-03T02:32:52.073Z,97612.50
2022-10-03T02:37:23.757Z,97616.03
2022-10-03T02:41:52.396Z,97623.41
2022-10-03T02:46:42.670Z,97631.19
2022-10-03T02:51:07.076Z,97632.38
2022-10-03T02:55:47.337Z,97637.44
2022-10-03T03:00:07.498Z,97650.91
2022-10-03T03:04:56.700Z,97652.06
2022-10-03T03:09:52.993Z,97659.41
2022-10-03T03:14:09.556Z,97664.34
2022-10-03T03:18:39.620Z,97661.22
2022-10-03T03:22:50.860Z,97659.38
2022-10-03T03:27:39.672Z,97663.38
2022-10-03T03:32:03.047Z,97670.00
2022-10-03T03:36:15.154Z,97679.28
2022-10-03T03:41:03.113Z,97686.59
2022-10-03T03:45:35.305Z,97687.31
2022-10-03T03:50:20.260Z,97696.44
2022-10-03T03:55:06.738Z,97691.59
2022-10-03T03:59:44.513Z,97679.28
2022-10-03T04:04:00.831Z,97691.19
2022-10-03T04:08:34.601Z,97693.28
2022-10-03T04:12:49.673Z,97698.63
2022-10-03T04:17:46.454Z,97658.25
2022-10-03T04:21:50.657Z,97694.00
2022-10-03T04:26:18.910Z,97685.94
2022-10-03T04:30:43.443Z,97686.41
2022-10-03T04:34:55.130Z,97694.97
2022-10-03T04:39:32.512Z,97650.03
2022-10-03T04:43:53.835Z,97693.91
2022-10-03T04:48:01.299Z,97682.00
2022-10-03T04:52:13.367Z,97691.28
2022-10-03T04:56:40.520Z,97689.09
2022-10-03T05:01:24.800Z,97687.69
2022-10-03T05:05:47.614Z,97687.88
2022-10-03T05:09:56.930Z,97664.25
2022-10-03T05:14:20.377Z,97703.81
2022-10-03T05:18:27.776Z,97689.97
2022-10-03T05:22:56.279Z,97704.53
2022-10-03T05:27:40.969Z,97711.44
2022-10-03T05:32:14.934Z,97715.84
2022-10-03T05:36:41.653Z,97715.41
2022-10-03T05:40:51.084Z,97715.66
2022-10-03T05:45:30.502Z,97721.41
2022-10-03T05:50:00.441Z,97723.41
2022-10-03T05:54:47.781Z,97736.97
2022-10-03T05:59:19.035Z,97737.78
2022-10-03T06:03:42.841Z,97743.44
2022-10-03T06:08:41.932Z,97751.47
2022-10-03T06:13:11.410Z,97740.19
2022-10-03T06:17:56.579Z,97757.03
2022-10-03T06:22:27.744Z,97738.25
2022-10-03T06:26:46.240Z,97758.69
2022-10-03T06:31:12.466Z,97761.88
2022-10-03T06:35:46.132Z,97764.63
2022-10-03T06:40:47.598Z,97758.22
2022-10-03T06:45:22.393Z,97766.88
2022-10-03T06:49:50.825Z,97778.16
2022-10-03T06:54:09.564Z,97770.13
2022-10-03T06:58:53.490Z,97771.09
2022-10-03T07:02:56.602Z,97778.72
2022-10-03T07:07:19.626Z,97776.44
2022-10-03T07:12:13.471Z,97772.06
2022-10-03T07:16:48.781Z,97771.44
2022-10-03T07:21:44.364Z,97781.94
2022-10-03T07:26:10.975Z,97769.88
2022-10-03T07:30:21.922Z,97793.56
2022-10-03T07:35:15.429Z,97803.16
2022-10-03T07:39:35.871Z,97777.97
2022-10-03T07:43:56.148Z,97807.41
2022-10-03T07:48:35.858Z,97807.44
2022-10-03T07:52:57.445Z,97813.38
2022-10-03T07:57:32.882Z,97814.56
2022-10-03T08:02:23.251Z,97811.63
2022-10-03T08:06:38.841Z,97811.69
2022-10-03T08:11:14.858Z,97773.22
2022-10-03T08:15:28.058Z,97814.34
2022-10-03T08:19:42.997Z,97834.09
2022-10-03T08:24:05.287Z,97823.03
2022-10-03T08:28:44.342Z,97823.28
2022-10-03T08:33:05.116Z,97831.56
2022-10-03T08:37:29.165Z,97828.81
2022-10-03T08:42:08.003Z,97843.69
2022-10-03T08:46:37.655Z,97854.94
2022-10-03T08:51:12.702Z,97846.09
2022-10-03T08:55:45.663Z,97844.53
2022-10-03T09:00:12.769Z,97858.84
2022-10-03T09:04:49.886Z,97860.22
2022-10-03T09:09:14.936Z,97854.66
2022-10-03T09:13:50.871Z,97832.88
2022-10-03T09:18:27.166Z,97849.78
2022-10-03T09:22:53.831Z,97852.41
2022-10-03T09:27:22.620Z,97848.84
2022-10-03T09:31:38.212Z,97846.25
2022-10-03T09:36:13.132Z,97852.88
2022-10-03T09:41:09.894Z,97854.03
2022-10-03T09:45:34.810Z,97857.88
2022-10-03T09:50:19.468Z,97865.56
2022-10-03T09:54:57.026Z,97868.25
2022-10-03T09:59:22.673Z,97857.13
2022-10-03T10:03:51.009Z,97864.88
2022-10-03T10:07:57.163Z,97867.50
2022-10-03T10:12:15.243Z,97870.88
2022-10-03T10:16:54.185Z,97864.69
2022-10-03T10:21:34.142Z,97830.38
2022-10-03T10:26:34.619Z,97851.88
2022-10-03T10:31:05.525Z,97855.81
2022-10-03T10:35:44.614Z,97854.50
2022-10-03T10:40:15.106Z,97855.75
2022-10-03T10:45:01.634Z,97837.97
2022-10-03T10:49:45.940Z,97822.47
2022-10-03T10:54:24.515Z,97860.53
2022-10-03T10:58:58.404Z,97858.75
2022-10-03T11:03:54.420Z,97866.59
2022-10-03T11:08:10.040Z,97855.38
2022-10-03T11:12:58.845Z,97858.72
2022-10-03T11:17:39.690Z,97855.88
2022-10-03T11:22:26.614Z,97857.31
2022-10-03T11:27:16.633Z,97858.69
2022-10-03T11:32:09.721Z,97853.00
2022-10-03T11:36:49.966Z,97852.34
2022-10-03T11:41:16.397Z,97860.91
2022-10-03T11:45:33.365Z,97862.69
2022-10-03T11:50:25.793Z,97844.16
2022-10-03T11:54:32.920Z,97849.72
2022-10-03T11:58:39.082Z,97846.63
2022-10-03T12:03:30.311Z,97840.09
2022-10-03T12:07:58.877Z,97831.53
2022-10-03T12:12:11.659Z,97812.13
2022-10-03T12:16:27.908Z,97824.44
2022-10-03T12:20:52.900Z,97825.22
2022-10-03T12:24:56.227Z,97818.66
2022-10-03T12:28:58.112Z,97801.16
2022-10-03T12:33:10.851Z,97820.59
2022-10-03T12:37:26.481Z,97811.50
2022-10-03T12:42:05.511Z,97820.97
2022-10-03T12:46:15.870Z,97817.19
2022-10-03T12:50:28.074Z,97813.03
2022-10-03T12:54:49.573Z,97822.59
2022-10-03T12:59:23.851Z,97816.63
2022-10-03T13:03:26.114Z,97820.09
2022-10-03T13:07:38.601Z,97810.09
2022-10-03T13:12:11.598Z,97812.03
2022-10-03T13:16:43.756Z,97813.16
2022-10-03T13:20:50.289Z,97805.63
2022-10-03T13:25:21.919Z,97804.09
2022-10-03T13:29:34.820Z,97790.56
2022-10-03T13:33:51.324Z,97773.34
2022-10-03T13:38:31.861Z,97784.75
2022-10-03T13:42:53.878Z,97763.13
2022-10-03T13:47:28.201Z,97780.44
2022-10-03T13:51:53.932Z,97764.81
2022-10-03T13:55:58.588Z,97779.16
2022-10-03T14:00:16.390Z,97778.09
2022-10-03T14:04:53.418Z,97787.81
2022-10-03T14:09:05.370Z,97783.88
2022-10-03T14:13:32.454Z,97789.66
2022-10-03T14:17:54.511Z,97761.44
2022-10-03T14:22:28.373Z,97777.50
2022-10-03T14:26:36.598Z,97784.97
2022-10-03T14:31:05.064Z,97779.72
2022-10-03T14:35:46.180Z,97763.22
2022-10-03T14:40:20.664Z,97782.53
2022-10-03T14:44:29.903Z,97773.00
2022-10-03T14:48:40.373Z,97777.88
2022-10-03T14:53:02.109Z,97796.63
2022-10-03T14:57:00.157Z,97778.50
2022-10-03T15:01:12.567Z,97794.63
2022-10-03T15:05:38.518Z,97785.75
2022-10-03T15:09:50.099Z,97792.34
2022-10-03T15:13:56.914Z,97785.47
2022-10-03T15:18:00.609Z,97771.78
2022-10-03T15:22:27.277Z,97761.69
2022-10-03T15:26:31.009Z,97783.09
2022-10-03T15:30:35.456Z,97779.59
2022-10-03T15:34:40.292Z,97766.31
2022-10-03T15:38:45.001Z,97786.19
2022-10-03T15:43:01.449Z,97784.75
2022-10-03T15:47:14.096Z,97758.78
2022-10-03T15:51:19.771Z,97775.88
2022-10-03T15:55:46.726Z,97754.22
2022-10-03T15:59:47.170Z,97741.97
2022-10-03T16:03:52.482Z,97763.03
2022-10-03T16:08:06.862Z,97771.34
2022-10-03T16:12:22.538Z,97773.22
2022-10-03T16:16:35.848Z,97755.88
2022-10-03T16:20:45.764Z,97775.06
2022-10-03T16:25:28.043Z,97769.38
2022-10-03T16:29:33.411Z,97770.66
2022-10-03T16:34:16.594Z,97785.31
2022-10-03T16:38:46.438Z,97771.84
2022-10-03T16:42:50.287Z,97778.31
2022-10-03T16:46:49.398Z,97778.34
2022-10-03T16:50:53.887Z,97777.81
2022-10-03T16:55:02.916Z,97769.47
2022-10-03T16:59:13.215Z,97783.72
2022-10-03T17:03:30.514Z,97771.84
2022-10-03T17:07:39.301Z,97789.81
2022-10-03T17:11:41.643Z,97770.09
2022-10-03T17:16:00.020Z,97793.19
2022-10-03T17:20:07.855Z,97796.06
2022-10-03T17:24:20.928Z,97789.34
2022-10-03T17:28:51.130Z,97795.19
2022-10-03T17:33:08.892Z,97798.63
2022-10-03T17:37:26.414Z,97797.28
2022-10-03T17:42:04.447Z,97806.34
2022-10-03T17:46:33.616Z,97805.00
2022-10-03T17:50:40.071Z,97805.22
2022-10-03T17:54:39.881Z,97786.38
2022-10-03T17:58:45.596Z,97791.38
2022-10-03T18:03:13.795Z,97778.53
2022-10-03T18:07:22.733Z,97784.44
2022-10-03T18:11:29.944Z,97796.06
2022-10-03T18:16:11.396Z,97805.72
2022-10-03T18:20:35.660Z,97794.09
2022-10-03T18:25:36.283Z,97794.09
2022-10-03T18:29:51.094Z,97763.88
2022-10-03T18:34:09.214Z,97781.69
2022-10-03T18:38:25.024Z,97777.38
2022-10-03T18:42:30.448Z,97787.81
2022-10-03T18:46:42.766Z,97767.22
2022-10-03T18:50:59.294Z,97778.72
2022-10-03T18:55:29.696Z,97771.22
2022-10-03T18:59:47.844Z,97760.13
2022-10-03T19:04:05.211Z,97779.22
2022-10-03T19:08:38.925Z,97782.72
2022-10-03T19:12:43.859Z,97781.78
2022-10-03T19:17:05.435Z,97778.34
2022-10-03T19:21:21.305Z,97758.16
2022-10-03T19:25:25.342Z,97782.31
2022-10-03T19:29:29.854Z,97785.97
2022-10-03T19:33:32.017Z,97786.03
2022-10-03T19:37:45.528Z,97779.53
2022-10-03T19:42:19.715Z,97781.44
2022-10-03T19:46:22.978Z,97786.59
2022-10-03T19:50:36.124Z,97784.38
2022-10-03T19:54:58.573Z,97797.44
2022-10-03T19:59:15.593Z,97800.75
2022-10-03T20:03:16.849Z,97799.38
2022-10-03T20:07:25.666Z,97789.28
2022-10-03T20:11:44.147Z,97805.28
2022-10-03T20:15:47.230Z,97766.34
2022-10-03T20:19:57.275Z,97803.91
2022-10-03T20:23:56.894Z,97797.41
2022-10-03T20:27:58.152Z,97797.84
2022-10-03T20:32:04.716Z,97803.50
2022-10-03T20:36:14.139Z,97796.88
2022-10-03T20:40:28.388Z,97786.88
2022-10-03T20:44:49.944Z,97793.66
2022-10-03T20:49:15.788Z,97759.13
2022-10-03T20:53:20.781Z,97797.47
2022-10-03T20:57:52.364Z,97761.25
2022-10-03T21:02:06.345Z,97786.03
2022-10-03T21:06:16.644Z,97777.13
2022-10-03T21:10:55.533Z,97765.47
2022-10-03T21:15:04.563Z,97778.72
2022-10-03T21:19:06.005Z,97780.75
2022-10-03T21:23:14.490Z,97770.59
2022-10-03T21:27:18.166Z,97791.44
2022-10-03T21:31:26.246Z,97781.88
2022-10-03T21:35:35.464Z,97782.09
2022-10-03T21:40:18.001Z,97779.63
2022-10-03T21:44:57.746Z,97770.63
2022-10-03T21:49:13.712Z,97767.22
2022-10-03T21:53:29.701Z,97759.13
2022-10-03T21:58:23.731Z,97737.38
2022-10-03T22:03:03.609Z,97748.16
2022-10-03T22:07:15.031Z,97752.09
2022-10-03T22:11:44.934Z,97745.47
2022-10-03T22:16:09.910Z,97740.97
2022-10-03T22:20:15.799Z,97762.28
2022-10-03T22:24:29.476Z,97730.88
2022-10-03T22:29:01.762Z,97765.97
2022-10-03T22:33:18.888Z,97748.50
2022-10-03T22:37:16.606Z,97737.72
2022-10-03T22:41:21.868Z,97742.81
2022-10-03T22:45:20.174Z,97728.78
2022-10-03T22:49:26.871Z,97726.81
2022-10-03T22:53:31.297Z,97711.91
2022-10-03T22:57:31.757Z,97733.66
2022-10-03T23:01:32.234Z,97706.50
2022-10-03T23:06:09.766Z,97721.47
2022-10-03T23:10:26.439Z,97724.50
2022-10-03T23:14:32.336Z,97714.75
2022-10-03T23:18:59.134Z,97725.19
2022-10-03T23:23:02.324Z,97697.19
2022-10-03T23:27:21.798Z,97724.03
2022-10-03T23:32:09.319Z,97721.47
2022-10-03T23:36:24.616Z,97662.84
2022-10-03T23:40:40.047Z,97709.28
2022-10-03T23:45:00.898Z,97723.94
2022-10-03T23:49:02.009Z,97730.53
2022-10-03T23:53:00.911Z,97717.91
2022-10-03T23:57:07.957Z,97699.47
